createdAt,value
2023-02-11T00:00:40.203Z,20.73
2023-02-11T00:03:06.726Z,19.77
2023-02-11T00:05:33.090Z,20.00
2023-02-11T00:07:59.396Z,17.83
2023-02-11T00:10:25.694Z,18.88
2023-02-11T00:12:51.988Z,20.92
2023-02-11T00:15:18.312Z,21.45
2023-02-11T00:17:44.641Z,19.65
2023-02-11T00:20:11.033Z,22.30
2023-02-11T00:22:37.373Z,19.13
2023-02-11T00:25:04.349Z,19.50
2023-02-11T00:27:30.647Z,18.30
2023-02-11T00:29:57.049Z,18.52
2023-02-11T00:32:23.353Z,18.30
2023-02-11T00:34:52.647Z,18.80
2023-02-11T00:37:19.058Z,18.65
2023-02-11T00:39:45.467Z,18.02
2023-02-11T00:42:14.988Z,17.85
2023-02-11T00:44:41.384Z,17.80
2023-02-11T00:47:07.685Z,17.60
2023-02-11T00:49:34.040Z,16.30
2023-02-11T00:52:00.402Z,16.60
2023-02-11T00:54:29.041Z,16.67
2023-02-11T00:56:56.294Z,16.83
2023-02-11T00:59:22.623Z,17.75
2023-02-11T01:01:49.042Z,16.35
2023-02-11T01:04:15.369Z,17.13
2023-02-11T01:06:41.661Z,17.33
2023-02-11T01:09:08.069Z,16.40
2023-02-11T01:11:34.578Z,17.48
2023-02-11T01:14:02.539Z,15.65
2023-02-11T01:16:29.038Z,16.25
2023-02-11T01:18:55.497Z,17.13
2023-02-11T01:21:21.832Z,15.88
2023-02-11T01:23:48.146Z,14.65
2023-02-11T01:26:14.475Z,16.35
2023-02-11T01:28:40.768Z,14.90
2023-02-11T01:31:07.233Z,16.33
2023-02-11T01:33:33.958Z,14.40
2023-02-11T01:36:01.883Z,15.07
2023-02-11T01:38:28.495Z,15.77
2023-02-11T01:41:03.621Z,15.35
2023-02-11T01:43:34.119Z,15.50
2023-02-11T01:46:23.403Z,15.90
2023-02-11T01:48:57.361Z,14.55
2023-02-11T01:51:28.852Z,15.77
2023-02-11T01:53:57.111Z,15.63
2023-02-11T01:56:26.965Z,14.60
2023-02-11T01:58:59.056Z,16.27
2023-02-11T02:01:27.578Z,14.95
2023-02-11T02:03:59.716Z,17.00
2023-02-11T02:06:33.284Z,14.98
2023-02-11T02:09:11.234Z,15.38
2023-02-11T02:11:37.822Z,13.40
2023-02-11T02:14:04.236Z,16.95
2023-02-11T02:16:34.895Z,15.07
2023-02-11T02:19:22.474Z,13.63
2023-02-11T02:22:06.110Z,14.23
2023-02-11T02:25:14.048Z,13.82
2023-02-11T02:27:49.355Z,14.30
2023-02-11T02:30:45.095Z,14.40
2023-02-11T02:33:22.658Z,15.40
2023-02-11T02:36:14.307Z,15.13
2023-02-11T02:38:56.096Z,14.88
2023-02-11T02:41:28.362Z,14.00
2023-02-11T02:43:54.966Z,14.50
2023-02-11T02:46:30.648Z,13.82
2023-02-11T02:48:58.417Z,12.88
2023-02-11T02:51:53.934Z,14.35
2023-02-11T02:54:50.558Z,15.52
2023-02-11T02:57:32.328Z,13.88
2023-02-11T03:00:25.777Z,13.88
2023-02-11T03:03:10.121Z,13.05
2023-02-11T03:05:53.671Z,13.45
2023-02-11T03:08:30.453Z,15.82
2023-02-11T03:10:58.860Z,13.13
2023-02-11T03:13:30.727Z,15.68
2023-02-11T03:16:00.687Z,14.55
2023-02-11T03:19:54.589Z,14.15
2023-02-11T03:22:27.452Z,14.57
2023-02-11T03:24:56.334Z,14.77
2023-02-11T03:27:43.761Z,15.30
2023-02-11T03:30:38.556Z,14.82
2023-02-11T03:33:20.017Z,14.18
2023-02-11T03:35:55.922Z,14.98
2023-02-11T03:38:31.619Z,14.75
2023-02-11T03:40:59.857Z,13.60
2023-02-11T03:43:31.937Z,14.43
2023-02-11T03:46:00.077Z,14.57
2023-02-11T03:48:40.102Z,16.42
2023-02-11T03:51:09.625Z,14.07
2023-02-11T03:53:38.219Z,14.50
2023-02-11T03:56:09.191Z,13.52
2023-02-11T03:58:35.491Z,14.35
2023-02-11T04:01:01.872Z,14.65
2023-02-11T04:03:28.509Z,14.88
2023-02-11T04:05:54.841Z,14.25
2023-02-11T04:08:21.258Z,14.77
2023-02-11T04:10:47.553Z,13.35
2023-02-11T04:13:13.850Z,14.50
2023-02-11T04:15:40.151Z,15.32
2023-02-11T04:18:06.547Z,15.30
2023-02-11T04:20:32.969Z,16.60
2023-02-11T04:22:59.330Z,16.08
2023-02-11T04:25:25.690Z,17.23
2023-02-11T04:27:52.080Z,17.13
2023-02-11T04:30:18.436Z,16.98
2023-02-11T04:32:44.795Z,13.77
2023-02-11T04:35:11.185Z,15.77
2023-02-11T04:37:37.822Z,12.88
2023-02-11T04:40:04.607Z,13.20
2023-02-11T04:42:30.903Z,13.70
2023-02-11T04:44:57.330Z,13.68
2023-02-11T04:47:23.854Z,13.65
2023-02-11T04:49:50.179Z,12.00
2023-02-11T04:52:16.497Z,13.07
2023-02-11T04:54:42.805Z,12.45
2023-02-11T04:57:09.103Z,12.63
2023-02-11T04:59:35.519Z,12.52
2023-02-11T05:02:01.828Z,14.02
2023-02-11T05:04:28.229Z,12.32
2023-02-11T05:06:55.656Z,12.98
2023-02-11T05:09:23.388Z,12.73
2023-02-11T05:11:49.848Z,12.25
2023-02-11T05:14:16.177Z,13.93
2023-02-11T05:16:42.527Z,11.60
2023-02-11T05:19:08.916Z,12.38
2023-02-11T05:21:35.195Z,12.45
2023-02-11T05:24:01.492Z,11.95
2023-02-11T05:26:28.031Z,12.48
2023-02-11T05:28:54.360Z,12.00
2023-02-11T05:31:20.697Z,13.38
2023-02-11T05:33:47.104Z,11.82
2023-02-11T05:36:13.453Z,12.75
2023-02-11T05:38:40.096Z,12.90
2023-02-11T05:41:06.839Z,14.30
2023-02-11T05:43:33.413Z,18.98
2023-02-11T05:45:59.778Z,17.30
2023-02-11T05:48:26.185Z,15.27
2023-02-11T05:50:52.512Z,13.73
2023-02-11T05:53:18.808Z,13.05
2023-02-11T05:55:45.636Z,13.02
2023-02-11T05:58:11.935Z,13.30
2023-02-11T06:00:38.326Z,13.27
2023-02-11T06:03:05.221Z,12.88
2023-02-11T06:05:32.256Z,11.48
2023-02-11T06:07:58.972Z,12.10
2023-02-11T06:10:25.721Z,12.18
2023-02-11T06:12:52.201Z,12.25
2023-02-11T06:15:18.483Z,10.55
2023-02-11T06:17:44.795Z,11.73
2023-02-11T06:20:11.847Z,11.35
2023-02-11T06:22:38.186Z,10.65
2023-02-11T06:25:04.845Z,10.95
2023-02-11T06:27:31.376Z,10.23
2023-02-11T06:29:57.709Z,10.65
2023-02-11T06:32:42.859Z,10.88
2023-02-11T06:35:12.044Z,10.52
2023-02-11T06:37:39.403Z,10.95
2023-02-11T06:40:06.091Z,11.45
2023-02-11T06:42:32.409Z,11.05
2023-02-11T06:44:58.725Z,12.02
2023-02-11T06:47:25.163Z,11.10
2023-02-11T06:49:51.522Z,10.20
2023-02-11T06:52:17.802Z,10.88
2023-02-11T06:54:44.122Z,10.30
2023-02-11T06:57:10.433Z,9.85
2023-02-11T06:59:36.721Z,10.13
2023-02-11T07:02:03.117Z,11.57
2023-02-11T07:04:29.561Z,11.65
2023-02-11T07:06:55.907Z,16.60
2023-02-11T07:09:22.198Z,13.75
2023-02-11T07:11:48.492Z,16.13
2023-02-11T07:14:14.797Z,18.45
2023-02-11T07:16:41.138Z,14.68
2023-02-11T07:19:07.621Z,13.05
2023-02-11T07:21:34.193Z,12.93
2023-02-11T07:24:00.490Z,12.25
2023-02-11T07:26:26.957Z,13.10
2023-02-11T07:28:53.628Z,12.00
2023-02-11T07:31:27.953Z,12.52
2023-02-11T07:33:56.501Z,11.65
2023-02-11T07:36:23.379Z,10.75
2023-02-11T07:38:50.245Z,10.93
2023-02-11T07:41:19.963Z,10.30
2023-02-11T07:43:46.680Z,10.13
2023-02-11T07:46:17.012Z,9.73
2023-02-11T07:48:43.409Z,9.48
2023-02-11T07:51:14.528Z,9.13
2023-02-11T07:53:40.980Z,9.68
2023-02-11T07:56:08.981Z,10.57
2023-02-11T07:58:35.771Z,9.43
2023-02-11T08:01:07.675Z,9.23
2023-02-11T08:03:35.144Z,9.10
2023-02-11T08:06:09.721Z,8.57
2023-02-11T08:08:36.325Z,7.60
2023-02-11T08:11:10.675Z,9.30
2023-02-11T08:13:37.904Z,8.43
2023-02-11T08:16:05.151Z,8.00
2023-02-11T08:18:33.109Z,8.27
2023-02-11T08:21:07.317Z,8.25
2023-02-11T08:23:36.505Z,7.53
2023-02-11T08:26:04.279Z,8.15
2023-02-11T08:30:57.186Z,7.82
2023-02-11T08:33:23.506Z,7.70
2023-02-11T08:35:49.792Z,8.18
2023-02-11T08:38:16.138Z,7.30
2023-02-11T08:40:42.413Z,7.50
2023-02-11T08:43:08.687Z,8.25
2023-02-11T08:45:35.094Z,8.25
2023-02-11T08:48:01.409Z,8.00
2023-02-11T08:50:27.908Z,8.73
2023-02-11T08:52:54.205Z,8.13
2023-02-11T08:55:20.495Z,7.55
2023-02-11T08:57:47.685Z,8.15
2023-02-11T09:00:14.855Z,7.85
2023-02-11T09:02:41.237Z,8.10
2023-02-11T09:05:07.998Z,8.23
2023-02-11T09:07:34.280Z,8.15
2023-02-11T09:10:00.707Z,8.25
2023-02-11T09:12:27.103Z,7.47
2023-02-11T09:14:53.387Z,7.53
2023-02-11T09:17:19.773Z,7.85
2023-02-11T09:19:46.091Z,7.75
2023-02-11T09:22:12.421Z,8.25
2023-02-11T09:24:38.714Z,8.55
2023-02-11T09:27:05.900Z,7.45
2023-02-11T09:29:32.255Z,8.13
2023-02-11T09:31:58.699Z,8.18
2023-02-11T09:34:25.044Z,7.82
2023-02-11T09:36:51.466Z,8.35
2023-02-11T09:39:19.159Z,8.10
2023-02-11T09:42:10.565Z,7.03
2023-02-11T09:44:38.033Z,8.05
2023-02-11T09:47:07.565Z,7.63
2023-02-11T09:49:40.713Z,7.30
2023-02-11T09:52:48.249Z,7.57
2023-02-11T09:55:22.549Z,7.78
2023-02-11T09:57:49.212Z,8.13
2023-02-11T10:00:31.552Z,8.50
2023-02-11T10:03:21.197Z,7.68
2023-02-11T10:06:05.486Z,7.50
2023-02-11T10:08:49.482Z,7.50
2023-02-11T10:11:32.671Z,8.38
2023-02-11T10:14:21.921Z,6.85
2023-02-11T10:17:02.245Z,7.78
2023-02-11T10:20:00.331Z,8.55
2023-02-11T10:25:16.491Z,7.32
2023-02-11T10:27:43.075Z,7.13
2023-02-11T10:30:21.872Z,8.52
2023-02-11T10:32:57.567Z,7.45
2023-02-11T10:35:24.539Z,7.85
2023-02-11T10:37:50.934Z,8.25
2023-02-11T10:40:20.872Z,8.70
2023-02-11T10:42:55.559Z,10.27
2023-02-11T10:45:31.997Z,10.40
2023-02-11T10:47:58.484Z,10.48
2023-02-11T10:50:28.285Z,9.32
2023-02-11T10:53:12.154Z,9.43
2023-02-11T10:55:38.689Z,6.95
2023-02-11T10:58:05.634Z,7.65
2023-02-11T11:00:42.223Z,8.63
2023-02-11T11:03:19.391Z,7.82
2023-02-11T11:05:49.162Z,8.75
2023-02-11T11:08:16.804Z,9.05
2023-02-11T11:13:30.319Z,7.32
2023-02-11T11:16:33.175Z,8.40
2023-02-11T11:19:08.618Z,8.52
2023-02-11T11:21:43.932Z,7.57
2023-02-11T11:24:39.913Z,8.55
2023-02-11T11:27:06.878Z,8.20
2023-02-11T11:29:45.703Z,8.38
2023-02-11T11:32:20.604Z,10.07
2023-02-11T11:34:55.823Z,8.45
2023-02-11T11:37:26.956Z,9.15
2023-02-11T11:40:07.696Z,8.70
2023-02-11T11:42:37.312Z,10.00
2023-02-11T11:45:24.854Z,8.75
2023-02-11T11:47:55.821Z,11.52
2023-02-11T11:50:36.700Z,9.82
2023-02-11T11:53:30.701Z,10.90
2023-02-11T11:56:13.668Z,10.18
2023-02-11T11:58:40.129Z,10.55
2023-02-11T12:01:45.390Z,10.57
2023-02-11T12:04:33.436Z,9.95
2023-02-11T12:07:36.976Z,11.02
2023-02-11T12:10:24.560Z,11.27
2023-02-11T12:13:02.294Z,11.18
2023-02-11T12:15:42.755Z,9.63
2023-02-11T12:18:24.276Z,11.73
2023-02-11T12:21:00.093Z,9.75
2023-02-11T12:23:58.291Z,9.73
2023-02-11T12:26:36.047Z,11.07
2023-02-11T12:29:29.968Z,11.13
2023-02-11T12:31:59.254Z,10.15
2023-02-11T12:34:41.097Z,10.20
2023-02-11T12:37:29.229Z,9.20
2023-02-11T12:40:09.016Z,10.75
2023-02-11T12:45:10.800Z,10.57
2023-02-11T12:47:40.095Z,10.60
2023-02-11T12:50:09.301Z,9.13
2023-02-11T12:53:00.577Z,8.40
2023-02-11T12:55:31.070Z,10.02
2023-02-11T12:57:58.538Z,8.68
2023-02-11T13:00:53.025Z,10.55
2023-02-11T13:03:49.839Z,9.50
2023-02-11T13:06:22.424Z,10.57
2023-02-11T13:08:53.657Z,9.50
2023-02-11T13:11:26.988Z,9.82
2023-02-11T13:14:01.877Z,9.13
2023-02-11T13:16:37.156Z,9.55
2023-02-11T13:19:17.604Z,8.80
2023-02-11T13:22:25.212Z,11.13
2023-02-11T13:25:02.039Z,8.52
2023-02-11T13:28:14.525Z,10.00
2023-02-11T13:30:41.177Z,9.02
2023-02-11T13:33:20.027Z,9.20
2023-02-11T13:36:06.558Z,8.48
2023-02-11T13:38:33.602Z,8.65
2023-02-11T13:41:26.566Z,8.82
2023-02-11T13:44:11.151Z,10.00
2023-02-11T13:46:54.803Z,10.48
2023-02-11T13:49:25.569Z,11.52
2023-02-11T13:51:53.501Z,10.73
2023-02-11T13:54:27.120Z,9.43
2023-02-11T13:59:38.389Z,9.70
2023-02-11T14:02:16.755Z,10.18
2023-02-11T14:05:19.160Z,10.70
2023-02-11T14:08:11.493Z,9.60
2023-02-11T14:10:43.559Z,10.27
2023-02-11T14:13:25.218Z,9.82
2023-02-11T14:16:10.892Z,7.82
2023-02-11T14:18:49.225Z,10.00
2023-02-11T14:21:27.615Z,8.45
2023-02-11T14:24:13.943Z,9.77
2023-02-11T14:26:52.095Z,9.38
2023-02-11T14:29:18.341Z,9.57
2023-02-11T14:32:06.591Z,10.20
2023-02-11T14:34:56.013Z,9.57
2023-02-11T14:37:50.931Z,10.48
2023-02-11T14:40:26.686Z,9.57
2023-02-11T14:42:55.133Z,9.55
2023-02-11T14:45:26.838Z,9.65
2023-02-11T14:48:16.078Z,9.90
2023-02-11T14:50:52.761Z,8.35
2023-02-11T14:53:25.832Z,9.07
2023-02-11T14:55:54.212Z,10.45
2023-02-11T14:58:23.255Z,9.77
2023-02-11T15:00:57.681Z,8.98
2023-02-11T15:03:29.979Z,9.82
2023-02-11T15:05:59.277Z,10.15
2023-02-11T15:08:26.669Z,9.90
2023-02-11T15:10:55.234Z,9.45
2023-02-11T15:13:24.552Z,8.52
2023-02-11T15:15:55.558Z,9.60
2023-02-11T15:18:25.276Z,9.88
2023-02-11T15:20:52.236Z,9.82
2023-02-11T15:23:25.995Z,9.10
2023-02-11T15:25:52.479Z,8.75
2023-02-11T15:28:28.197Z,8.73
2023-02-11T15:31:00.780Z,9.48
2023-02-11T15:33:27.918Z,9.15
2023-02-11T15:35:54.203Z,9.55
2023-02-11T15:38:20.623Z,9.43
2023-02-11T15:41:02.197Z,10.00
2023-02-11T15:43:44.892Z,10.55
2023-02-11T15:46:15.485Z,9.45
2023-02-11T15:48:53.566Z,10.52
2023-02-11T15:51:33.123Z,10.55
2023-02-11T15:54:02.522Z,9.82
2023-02-11T15:56:34.786Z,9.23
2023-02-11T15:59:14.305Z,11.30
2023-02-11T16:01:41.162Z,10.15
2023-02-11T16:04:14.638Z,10.10
2023-02-11T16:06:42.935Z,10.77
2023-02-11T16:09:09.165Z,10.85
2023-02-11T16:11:52.784Z,11.02
2023-02-11T16:14:27.175Z,11.02
2023-02-11T16:16:57.749Z,10.45
2023-02-11T16:19:25.927Z,10.02
2023-02-11T16:21:54.699Z,10.95
2023-02-11T16:24:25.978Z,10.95
2023-02-11T16:26:55.457Z,9.88
2023-02-11T16:29:27.926Z,11.00
2023-02-11T16:32:06.464Z,10.40
2023-02-11T16:34:32.855Z,10.30
2023-02-11T16:36:59.238Z,10.25
2023-02-11T16:39:25.511Z,11.05
2023-02-11T16:41:52.267Z,11.30
2023-02-11T16:44:18.716Z,11.32
2023-02-11T16:46:45.532Z,11.05
2023-02-11T16:49:20.442Z,11.10
2023-02-11T16:51:49.916Z,11.55
2023-02-11T16:54:17.482Z,11.13
2023-02-11T16:56:44.389Z,11.20
2023-02-11T16:59:11.135Z,10.95
2023-02-11T17:01:42.424Z,11.25
2023-02-11T17:04:27.133Z,10.95
2023-02-11T17:06:53.972Z,13.18
2023-02-11T17:09:24.042Z,12.23
2023-02-11T17:11:51.145Z,12.70
2023-02-11T17:14:18.596Z,12.10
2023-02-11T17:16:46.536Z,12.93
2023-02-11T17:19:14.963Z,11.40
2023-02-11T17:21:45.859Z,11.93
2023-02-11T17:24:12.834Z,14.55
2023-02-11T17:26:39.172Z,12.55
2023-02-11T17:29:07.190Z,13.27
2023-02-11T17:31:33.861Z,12.52
2023-02-11T17:34:00.399Z,13.02
2023-02-11T17:36:26.707Z,11.45
2023-02-11T17:38:55.081Z,12.30
2023-02-11T17:41:21.402Z,12.32
2023-02-11T17:43:47.708Z,11.50
2023-02-11T17:46:14.260Z,12.35
2023-02-11T17:48:40.620Z,12.35
2023-02-11T17:51:21.837Z,11.80
2023-02-11T17:53:48.265Z,12.10
2023-02-11T17:56:14.641Z,11.90
2023-02-11T17:58:40.933Z,12.10
2023-02-11T18:01:07.466Z,11.50
2023-02-11T18:03:33.909Z,12.23
2023-02-11T18:06:01.548Z,13.02
2023-02-11T18:10:54.292Z,12.30
2023-02-11T18:13:20.780Z,11.85
2023-02-11T18:15:47.105Z,12.93
2023-02-11T18:18:13.835Z,12.02
2023-02-11T18:20:40.582Z,12.05
2023-02-11T18:23:06.900Z,11.95
2023-02-11T18:25:33.245Z,12.65
2023-02-11T18:27:59.625Z,12.75
2023-02-11T18:30:26.340Z,11.98
2023-02-11T18:32:56.064Z,11.38
2023-02-11T18:35:23.108Z,12.10
2023-02-11T18:37:51.021Z,12.32
2023-02-11T18:40:17.559Z,11.60
2023-02-11T18:42:45.547Z,11.45
2023-02-11T18:45:13.418Z,13.57
2023-02-11T18:47:39.921Z,13.05
2023-02-11T18:50:08.450Z,12.75
2023-02-11T18:52:35.463Z,14.65
2023-02-11T18:55:01.759Z,13.57
2023-02-11T18:57:28.186Z,12.38
2023-02-11T18:59:54.704Z,11.82
2023-02-11T19:02:21.086Z,12.45
2023-02-11T19:04:47.518Z,11.38
2023-02-11T19:07:13.824Z,12.55
2023-02-11T19:09:40.113Z,12.55
2023-02-11T19:12:06.618Z,11.90
2023-02-11T19:14:33.255Z,13.10
2023-02-11T19:17:02.430Z,13.00
2023-02-11T19:19:31.802Z,12.88
2023-02-11T19:21:59.477Z,12.50
2023-02-11T19:26:57.033Z,13.52
2023-02-11T19:29:23.667Z,13.50
2023-02-11T19:31:50.160Z,15.00
2023-02-11T19:34:18.310Z,12.32
2023-02-11T19:36:44.595Z,13.38
2023-02-11T19:39:11.152Z,14.32
2023-02-11T19:41:37.913Z,14.57
2023-02-11T19:44:06.167Z,14.85
2023-02-11T19:46:36.286Z,14.35
2023-02-11T19:49:04.185Z,15.13
2023-02-11T19:51:31.468Z,17.40
2023-02-11T19:53:58.698Z,15.57
2023-02-11T19:56:25.042Z,16.95
2023-02-11T19:58:51.358Z,16.60
2023-02-11T20:01:20.697Z,23.17
2023-02-11T20:03:53.991Z,17.02
2023-02-11T20:06:24.102Z,15.20
2023-02-11T20:08:58.869Z,15.90
2023-02-11T20:11:26.256Z,15.75
2023-02-11T20:13:52.552Z,14.32
2023-02-11T20:16:21.609Z,14.80
2023-02-11T20:18:49.586Z,14.13
2023-02-11T20:21:21.537Z,13.68
2023-02-11T20:23:48.708Z,13.88
2023-02-11T20:26:23.760Z,14.55
2023-02-11T20:28:52.055Z,14.07
2023-02-11T20:31:19.313Z,14.75
2023-02-11T20:33:46.459Z,13.63
2023-02-11T20:36:16.245Z,13.80
2023-02-11T20:38:43.052Z,12.88
2023-02-11T20:41:26.804Z,12.63
2023-02-11T20:43:55.021Z,14.13
2023-02-11T20:46:24.472Z,13.02
2023-02-11T20:48:52.146Z,13.25
2023-02-11T20:53:48.197Z,12.10
2023-02-11T20:56:16.007Z,12.07
2023-02-11T20:58:42.849Z,12.32
2023-02-11T21:01:18.703Z,13.23
2023-02-11T21:03:59.472Z,13.60
2023-02-11T21:06:30.361Z,12.65
2023-02-11T21:08:56.680Z,13.45
2023-02-11T21:11:23.556Z,13.93
2023-02-11T21:13:50.315Z,14.45
2023-02-11T21:16:20.086Z,16.13
2023-02-11T21:18:47.507Z,14.02
2023-02-11T21:21:13.872Z,13.95
2023-02-11T21:23:40.282Z,14.00
2023-02-11T21:26:07.609Z,13.25
2023-02-11T21:28:34.567Z,14.40
2023-02-11T21:31:01.723Z,13.80
2023-02-11T21:33:29.160Z,14.82
2023-02-11T21:35:57.266Z,14.40
2023-02-11T21:38:24.995Z,15.00
2023-02-11T21:43:18.317Z,12.80
2023-02-11T21:45:49.940Z,13.68
2023-02-11T21:48:17.233Z,14.25
2023-02-11T21:50:46.893Z,15.63
2023-02-11T21:53:21.227Z,14.27
2023-02-11T21:55:47.528Z,13.68
2023-02-11T21:58:13.835Z,14.15
2023-02-11T22:00:40.326Z,15.48
2023-02-11T22:03:06.692Z,15.27
2023-02-11T22:05:32.999Z,14.30
2023-02-11T22:07:59.394Z,15.00
2023-02-11T22:10:25.698Z,15.32
2023-02-11T22:12:52.061Z,15.27
2023-02-11T22:15:18.441Z,14.48
2023-02-11T22:17:44.723Z,15.10
2023-02-11T22:20:11.790Z,15.82
2023-02-11T22:22:38.098Z,16.67
2023-02-11T22:25:04.541Z,15.95
2023-02-11T22:27:30.968Z,13.95
2023-02-11T22:29:57.259Z,14.75
2023-02-11T22:32:23.544Z,13.18
2023-02-11T22:34:52.174Z,14.23
2023-02-11T22:37:19.582Z,14.07
2023-02-11T22:39:45.945Z,13.98
2023-02-11T22:42:12.325Z,14.35
2023-02-11T22:44:38.631Z,15.18
2023-02-11T22:47:05.009Z,14.30
2023-02-11T22:49:31.348Z,14.50
2023-02-11T22:51:57.765Z,13.63
2023-02-11T22:54:24.217Z,13.85
2023-02-11T22:56:51.608Z,14.63
2023-02-11T22:59:18.247Z,14.80
2023-02-11T23:01:45.404Z,15.18
2023-02-11T23:04:14.188Z,15.32
2023-02-11T23:06:40.675Z,15.27
2023-02-11T23:09:09.772Z,16.08
2023-02-11T23:11:36.317Z,15.05
2023-02-11T23:14:03.022Z,15.25
2023-02-11T23:16:32.981Z,15.00
2023-02-11T23:19:00.964Z,15.00
2023-02-11T23:21:31.100Z,14.27
2023-02-11T23:24:00.075Z,13.77
2023-02-11T23:26:27.663Z,14.35
2023-02-11T23:28:54.187Z,14.13
2023-02-11T23:31:23.939Z,13.85
2023-02-11T23:33:51.222Z,14.68
2023-02-11T23:36:18.702Z,13.63
2023-02-11T23:38:45.439Z,13.07
2023-02-11T23:41:11.986Z,13.98
2023-02-11T23:43:38.379Z,14.38
2023-02-11T23:46:05.319Z,13.77
2023-02-11T23:48:32.152Z,13.70
2023-02-11T23:50:58.480Z,13.77
2023-02-11T23:53:24.772Z,14.68
2023-02-11T23:55:51.083Z,13.30
2023-02-11T23:58:17.391Z,14.82
